sensor_id;sensor_type;location;lat;lon;timestamp;temperature;humidity
25352;DHT22;13304;48.464;8.712;2023-05-14T00:01:58;14.60;86.80
25352;DHT22;13304;48.464;8.712;2023-05-14T00:04:24;14.60;86.60
25352;DHT22;13304;48.464;8.712;2023-05-14T00:06:50;14.50;86.40
25352;DHT22;13304;48.464;8.712;2023-05-14T00:09:16;14.50;86.20
25352;DHT22;13304;48.464;8.712;2023-05-14T00:11:42;14.50;86.90
25352;DHT22;13304;48.464;8.712;2023-05-14T00:14:08;14.50;86.00
25352;DHT22;13304;48.464;8.712;2023-05-14T00:16:33;14.40;86.60
25352;DHT22;13304;48.464;8.712;2023-05-14T00:18:59;14.40;85.80
25352;DHT22;13304;48.464;8.712;2023-05-14T00:21:25;14.40;85.70
25352;DHT22;13304;48.464;8.712;2023-05-14T00:23:51;14.40;85.80
25352;DHT22;13304;48.464;8.712;2023-05-14T00:26:16;14.30;85.80
25352;DHT22;13304;48.464;8.712;2023-05-14T00:28:42;14.30;85.90
25352;DHT22;13304;48.464;8.712;2023-05-14T00:31:08;14.30;86.00
25352;DHT22;13304;48.464;8.712;2023-05-14T00:33:34;14.20;86.10
25352;DHT22;13304;48.464;8.712;2023-05-14T00:36:00;14.20;86.30
25352;DHT22;13304;48.464;8.712;2023-05-14T00:38:25;14.20;86.60
25352;DHT22;13304;48.464;8.712;2023-05-14T00:40:52;14.20;86.80
25352;DHT22;13304;48.464;8.712;2023-05-14T00:43:19;14.10;86.80
25352;DHT22;13304;48.464;8.712;2023-05-14T00:45:47;14.20;86.70
25352;DHT22;13304;48.464;8.712;2023-05-14T00:48:14;14.10;86.40
25352;DHT22;13304;48.464;8.712;2023-05-14T00:50:40;14.10;86.30
25352;DHT22;13304;48.464;8.712;2023-05-14T00:53:06;14.10;86.20
25352;DHT22;13304;48.464;8.712;2023-05-14T00:55:36;14.10;86.20
25352;DHT22;13304;48.464;8.712;2023-05-14T00:58:09;14.10;86.20
25352;DHT22;13304;48.464;8.712;2023-05-14T01:00:35;14.00;86.10
25352;DHT22;13304;48.464;8.712;2023-05-14T01:03:05;14.00;86.10
25352;DHT22;13304;48.464;8.712;2023-05-14T01:06:08;14.00;86.10
25352;DHT22;13304;48.464;8.712;2023-05-14T01:08:49;13.90;86.20
25352;DHT22;13304;48.464;8.712;2023-05-14T01:11:33;13.90;86.30
25352;DHT22;13304;48.464;8.712;2023-05-14T01:14:16;13.90;86.40
25352;DHT22;13304;48.464;8.712;2023-05-14T01:16:44;13.90;86.50
25352;DHT22;13304;48.464;8.712;2023-05-14T01:21:52;13.80;86.60
25352;DHT22;13304;48.464;8.712;2023-05-14T01:24:17;13.80;86.80
25352;DHT22;13304;48.464;8.712;2023-05-14T01:26:43;13.80;86.90
25352;DHT22;13304;48.464;8.712;2023-05-14T01:29:14;13.80;87.00
25352;DHT22;13304;48.464;8.712;2023-05-14T01:31:42;13.80;87.10
25352;DHT22;13304;48.464;8.712;2023-05-14T01:34:10;13.80;87.20
25352;DHT22;13304;48.464;8.712;2023-05-14T01:36:38;13.80;87.30
25352;DHT22;13304;48.464;8.712;2023-05-14T01:39:05;13.80;87.30
25352;DHT22;13304;48.464;8.712;2023-05-14T01:41:35;13.80;87.20
25352;DHT22;13304;48.464;8.712;2023-05-14T01:44:02;13.80;87.20
25352;DHT22;13304;48.464;8.712;2023-05-14T01:46:31;13.80;87.20
25352;DHT22;13304;48.464;8.712;2023-05-14T01:48:58;13.80;87.30
25352;DHT22;13304;48.464;8.712;2023-05-14T01:51:23;13.80;87.40
25352;DHT22;13304;48.464;8.712;2023-05-14T01:53:49;13.80;87.40
25352;DHT22;13304;48.464;8.712;2023-05-14T01:56:16;13.80;87.50
25352;DHT22;13304;48.464;8.712;2023-05-14T01:58:42;13.80;87.50
25352;DHT22;13304;48.464;8.712;2023-05-14T02:01:08;13.90;87.60
25352;DHT22;13304;48.464;8.712;2023-05-14T02:03:33;13.90;87.60
25352;DHT22;13304;48.464;8.712;2023-05-14T02:05:59;13.90;87.60
25352;DHT22;13304;48.464;8.712;2023-05-14T02:08:25;13.90;87.50
25352;DHT22;13304;48.464;8.712;2023-05-14T02:10:51;13.90;87.50
25352;DHT22;13304;48.464;8.712;2023-05-14T02:13:16;13.90;87.50
25352;DHT22;13304;48.464;8.712;2023-05-14T02:15:42;13.90;87.50
25352;DHT22;13304;48.464;8.712;2023-05-14T02:18:08;13.90;87.60
25352;DHT22;13304;48.464;8.712;2023-05-14T02:20:33;13.90;87.60
25352;DHT22;13304;48.464;8.712;2023-05-14T02:22:59;13.90;87.70
25352;DHT22;13304;48.464;8.712;2023-05-14T02:25:25;13.90;87.70
25352;DHT22;13304;48.464;8.712;2023-05-14T02:27:50;13.90;87.70
25352;DHT22;13304;48.464;8.712;2023-05-14T02:30:16;13.90;87.70
25352;DHT22;13304;48.464;8.712;2023-05-14T02:32:42;13.90;87.70
25352;DHT22;13304;48.464;8.712;2023-05-14T02:35:08;14.00;87.80
25352;DHT22;13304;48.464;8.712;2023-05-14T02:37:34;14.00;87.80
25352;DHT22;13304;48.464;8.712;2023-05-14T02:40:00;14.00;87.70
25352;DHT22;13304;48.464;8.712;2023-05-14T02:42:25;14.00;87.80
25352;DHT22;13304;48.464;8.712;2023-05-14T02:44:51;14.00;88.00
25352;DHT22;13304;48.464;8.712;2023-05-14T02:47:18;14.10;88.00
25352;DHT22;13304;48.464;8.712;2023-05-14T02:49:43;14.00;87.90
25352;DHT22;13304;48.464;8.712;2023-05-14T02:52:09;14.00;88.10
25352;DHT22;13304;48.464;8.712;2023-05-14T02:54:35;14.10;88.10
25352;DHT22;13304;48.464;8.712;2023-05-14T02:57:00;14.10;88.10
25352;DHT22;13304;48.464;8.712;2023-05-14T02:59:26;14.10;88.10
25352;DHT22;13304;48.464;8.712;2023-05-14T03:01:52;14.10;88.10
25352;DHT22;13304;48.464;8.712;2023-05-14T03:04:18;14.10;88.20
25352;DHT22;13304;48.464;8.712;2023-05-14T03:06:43;14.10;88.10
25352;DHT22;13304;48.464;8.712;2023-05-14T03:09:10;14.10;88.10
25352;DHT22;13304;48.464;8.712;2023-05-14T03:11:36;14.10;88.20
25352;DHT22;13304;48.464;8.712;2023-05-14T03:14:02;14.20;88.30
25352;DHT22;13304;48.464;8.712;2023-05-14T03:16:28;14.10;88.20
25352;DHT22;13304;48.464;8.712;2023-05-14T03:18:53;14.10;88.20
25352;DHT22;13304;48.464;8.712;2023-05-14T03:21:19;14.10;88.10
25352;DHT22;13304;48.464;8.712;2023-05-14T03:23:45;14.20;88.20
25352;DHT22;13304;48.464;8.712;2023-05-14T03:26:11;14.20;88.30
25352;DHT22;13304;48.464;8.712;2023-05-14T03:28:36;14.20;88.30
25352;DHT22;13304;48.464;8.712;2023-05-14T03:31:02;14.20;88.30
25352;DHT22;13304;48.464;8.712;2023-05-14T03:33:28;14.20;88.30
25352;DHT22;13304;48.464;8.712;2023-05-14T03:35:54;14.20;88.30
25352;DHT22;13304;48.464;8.712;2023-05-14T03:38:19;14.20;88.20
25352;DHT22;13304;48.464;8.712;2023-05-14T03:40:45;14.20;88.20
25352;DHT22;13304;48.464;8.712;2023-05-14T03:43:11;14.20;88.20
25352;DHT22;13304;48.464;8.712;2023-05-14T03:45:37;14.20;88.10
25352;DHT22;13304;48.464;8.712;2023-05-14T03:48:04;14.20;88.10
25352;DHT22;13304;48.464;8.712;2023-05-14T03:50:31;14.20;88.10
25352;DHT22;13304;48.464;8.712;2023-05-14T03:52:56;14.20;88.20
25352;DHT22;13304;48.464;8.712;2023-05-14T03:55:22;14.20;88.10
25352;DHT22;13304;48.464;8.712;2023-05-14T03:57:48;14.20;88.10
25352;DHT22;13304;48.464;8.712;2023-05-14T04:00:14;14.20;88.10
25352;DHT22;13304;48.464;8.712;2023-05-14T04:02:40;14.20;88.10
25352;DHT22;13304;48.464;8.712;2023-05-14T04:05:06;14.20;88.20
25352;DHT22;13304;48.464;8.712;2023-05-14T04:07:31;14.20;88.10
25352;DHT22;13304;48.464;8.712;2023-05-14T04:09:57;14.20;88.10
25352;DHT22;13304;48.464;8.712;2023-05-14T04:12:24;14.20;88.30
25352;DHT22;13304;48.464;8.712;2023-05-14T04:14:51;14.20;88.30
25352;DHT22;13304;48.464;8.712;2023-05-14T04:17:17;14.20;88.20
25352;DHT22;13304;48.464;8.712;2023-05-14T04:19:43;14.20;88.30
25352;DHT22;13304;48.464;8.712;2023-05-14T04:22:08;14.20;88.30
25352;DHT22;13304;48.464;8.712;2023-05-14T04:24:34;14.20;88.40
25352;DHT22;13304;48.464;8.712;2023-05-14T04:27:00;14.10;88.40
25352;DHT22;13304;48.464;8.712;2023-05-14T04:29:25;14.20;88.50
25352;DHT22;13304;48.464;8.712;2023-05-14T04:31:51;14.20;88.50
25352;DHT22;13304;48.464;8.712;2023-05-14T04:34:17;14.20;88.50
25352;DHT22;13304;48.464;8.712;2023-05-14T04:36:43;14.20;88.60
25352;DHT22;13304;48.464;8.712;2023-05-14T04:39:09;14.20;88.60
25352;DHT22;13304;48.464;8.712;2023-05-14T04:41:36;14.20;88.60
25352;DHT22;13304;48.464;8.712;2023-05-14T04:44:02;14.20;88.60
25352;DHT22;13304;48.464;8.712;2023-05-14T04:46:28;14.20;88.60
25352;DHT22;13304;48.464;8.712;2023-05-14T04:48:54;14.20;88.60
25352;DHT22;13304;48.464;8.712;2023-05-14T04:51:21;14.20;88.70
25352;DHT22;13304;48.464;8.712;2023-05-14T04:53:47;14.20;88.70
25352;DHT22;13304;48.464;8.712;2023-05-14T04:56:12;14.20;88.70
25352;DHT22;13304;48.464;8.712;2023-05-14T04:58:38;14.20;88.80
25352;DHT22;13304;48.464;8.712;2023-05-14T05:01:04;14.30;88.90
25352;DHT22;13304;48.464;8.712;2023-05-14T05:03:30;14.20;89.00
25352;DHT22;13304;48.464;8.712;2023-05-14T05:05:56;14.30;89.00
25352;DHT22;13304;48.464;8.712;2023-05-14T05:08:22;14.20;89.00
25352;DHT22;13304;48.464;8.712;2023-05-14T05:10:48;14.30;89.00
25352;DHT22;13304;48.464;8.712;2023-05-14T05:13:13;14.30;89.10
25352;DHT22;13304;48.464;8.712;2023-05-14T05:15:41;14.30;89.20
25352;DHT22;13304;48.464;8.712;2023-05-14T05:18:07;14.30;89.10
25352;DHT22;13304;48.464;8.712;2023-05-14T05:20:33;14.30;89.10
25352;DHT22;13304;48.464;8.712;2023-05-14T05:22:59;14.30;89.00
25352;DHT22;13304;48.464;8.712;2023-05-14T05:25:25;14.40;89.10
25352;DHT22;13304;48.464;8.712;2023-05-14T05:27:51;14.40;89.20
25352;DHT22;13304;48.464;8.712;2023-05-14T05:30:16;14.40;89.30
25352;DHT22;13304;48.464;8.712;2023-05-14T05:32:42;14.40;89.30
25352;DHT22;13304;48.464;8.712;2023-05-14T05:35:08;14.40;89.30
25352;DHT22;13304;48.464;8.712;2023-05-14T05:37:34;14.50;89.20
25352;DHT22;13304;48.464;8.712;2023-05-14T05:40:00;14.50;89.10
25352;DHT22;13304;48.464;8.712;2023-05-14T05:42:25;14.50;89.10
25352;DHT22;13304;48.464;8.712;2023-05-14T05:44:51;14.50;89.10
25352;DHT22;13304;48.464;8.712;2023-05-14T05:47:17;14.50;89.10
25352;DHT22;13304;48.464;8.712;2023-05-14T05:49:43;14.60;89.10
25352;DHT22;13304;48.464;8.712;2023-05-14T05:52:08;14.60;89.20
25352;DHT22;13304;48.464;8.712;2023-05-14T05:54:35;14.60;89.20
25352;DHT22;13304;48.464;8.712;2023-05-14T05:57:00;14.70;89.30
25352;DHT22;13304;48.464;8.712;2023-05-14T05:59:26;14.70;89.20
25352;DHT22;13304;48.464;8.712;2023-05-14T06:01:52;14.70;89.20
25352;DHT22;13304;48.464;8.712;2023-05-14T06:04:17;14.80;89.10
25352;DHT22;13304;48.464;8.712;2023-05-14T06:06:43;14.80;89.00
25352;DHT22;13304;48.464;8.712;2023-05-14T06:09:09;14.90;88.90
25352;DHT22;13304;48.464;8.712;2023-05-14T06:11:35;14.90;88.80
25352;DHT22;13304;48.464;8.712;2023-05-14T06:14:00;14.90;88.80
25352;DHT22;13304;48.464;8.712;2023-05-14T06:16:26;15.00;88.90
25352;DHT22;13304;48.464;8.712;2023-05-14T06:18:52;15.00;88.80
25352;DHT22;13304;48.464;8.712;2023-05-14T06:21:18;15.10;88.70
25352;DHT22;13304;48.464;8.712;2023-05-14T06:23:44;15.10;89.40
25352;DHT22;13304;48.464;8.712;2023-05-14T06:26:10;15.20;88.80
25352;DHT22;13304;48.464;8.712;2023-05-14T06:28:36;15.20;88.50
25352;DHT22;13304;48.464;8.712;2023-05-14T06:31:01;15.30;88.40
25352;DHT22;13304;48.464;8.712;2023-05-14T06:33:27;15.30;88.10
25352;DHT22;13304;48.464;8.712;2023-05-14T06:35:57;15.40;87.90
25352;DHT22;13304;48.464;8.712;2023-05-14T06:38:23;15.40;88.50
25352;DHT22;13304;48.464;8.712;2023-05-14T06:40:49;15.40;87.30
25352;DHT22;13304;48.464;8.712;2023-05-14T06:43:16;15.40;87.50
25352;DHT22;13304;48.464;8.712;2023-05-14T06:45:42;15.40;87.30
25352;DHT22;13304;48.464;8.712;2023-05-14T06:48:07;15.50;87.70
25352;DHT22;13304;48.464;8.712;2023-05-14T06:50:34;15.50;87.70
25352;DHT22;13304;48.464;8.712;2023-05-14T06:53:00;15.50;87.60
25352;DHT22;13304;48.464;8.712;2023-05-14T06:55:26;15.60;87.50
25352;DHT22;13304;48.464;8.712;2023-05-14T06:57:51;15.60;87.50
25352;DHT22;13304;48.464;8.712;2023-05-14T07:00:18;15.60;87.30
25352;DHT22;13304;48.464;8.712;2023-05-14T07:02:44;15.70;87.00
25352;DHT22;13304;48.464;8.712;2023-05-14T07:05:10;15.70;86.70
25352;DHT22;13304;48.464;8.712;2023-05-14T07:07:35;15.70;86.20
25352;DHT22;13304;48.464;8.712;2023-05-14T07:10:02;15.80;86.50
25352;DHT22;13304;48.464;8.712;2023-05-14T07:12:27;15.80;86.10
25352;DHT22;13304;48.464;8.712;2023-05-14T07:14:53;15.80;86.90
25352;DHT22;13304;48.464;8.712;2023-05-14T07:17:21;15.90;86.00
25352;DHT22;13304;48.464;8.712;2023-05-14T07:19:47;15.90;85.80
25352;DHT22;13304;48.464;8.712;2023-05-14T07:22:12;15.90;85.90
25352;DHT22;13304;48.464;8.712;2023-05-14T07:24:38;15.90;85.50
25352;DHT22;13304;48.464;8.712;2023-05-14T07:27:04;15.90;85.60
25352;DHT22;13304;48.464;8.712;2023-05-14T07:29:30;15.90;85.20
25352;DHT22;13304;48.464;8.712;2023-05-14T07:31:59;16.00;85.00
25352;DHT22;13304;48.464;8.712;2023-05-14T07:34:25;16.00;85.10
25352;DHT22;13304;48.464;8.712;2023-05-14T07:36:51;16.00;85.00
25352;DHT22;13304;48.464;8.712;2023-05-14T07:39:18;16.00;84.70
25352;DHT22;13304;48.464;8.712;2023-05-14T07:41:44;16.00;84.80
25352;DHT22;13304;48.464;8.712;2023-05-14T07:44:10;16.00;85.00
25352;DHT22;13304;48.464;8.712;2023-05-14T07:46:36;16.10;84.90
25352;DHT22;13304;48.464;8.712;2023-05-14T07:49:02;16.10;84.80
25352;DHT22;13304;48.464;8.712;2023-05-14T07:51:28;16.10;85.10
25352;DHT22;13304;48.464;8.712;2023-05-14T07:53:54;16.10;85.00
25352;DHT22;13304;48.464;8.712;2023-05-14T07:56:22;16.10;84.90
25352;DHT22;13304;48.464;8.712;2023-05-14T07:58:49;16.10;85.10
25352;DHT22;13304;48.464;8.712;2023-05-14T08:01:16;16.10;85.40
25352;DHT22;13304;48.464;8.712;2023-05-14T08:03:41;16.10;85.40
25352;DHT22;13304;48.464;8.712;2023-05-14T08:06:07;16.10;85.40
25352;DHT22;13304;48.464;8.712;2023-05-14T08:08:33;16.00;85.40
25352;DHT22;13304;48.464;8.712;2023-05-14T08:10:59;16.00;85.70
25352;DHT22;13304;48.464;8.712;2023-05-14T08:13:25;16.00;86.20
25352;DHT22;13304;48.464;8.712;2023-05-14T08:15:51;15.90;86.20
25352;DHT22;13304;48.464;8.712;2023-05-14T08:18:17;15.90;86.50
25352;DHT22;13304;48.464;8.712;2023-05-14T08:20:42;15.80;86.90
25352;DHT22;13304;48.464;8.712;2023-05-14T08:23:08;15.80;87.10
25352;DHT22;13304;48.464;8.712;2023-05-14T08:25:34;15.70;87.10
25352;DHT22;13304;48.464;8.712;2023-05-14T08:28:00;15.70;87.40
25352;DHT22;13304;48.464;8.712;2023-05-14T08:30:26;15.70;87.70
25352;DHT22;13304;48.464;8.712;2023-05-14T08:32:52;15.70;88.00
25352;DHT22;13304;48.464;8.712;2023-05-14T08:35:18;15.70;88.40
25352;DHT22;13304;48.464;8.712;2023-05-14T08:37:44;15.60;88.40
25352;DHT22;13304;48.464;8.712;2023-05-14T08:40:11;15.60;88.90
25352;DHT22;13304;48.464;8.712;2023-05-14T08:42:38;15.60;89.40
25352;DHT22;13304;48.464;8.712;2023-05-14T08:45:20;15.60;89.70
25352;DHT22;13304;48.464;8.712;2023-05-14T08:47:50;15.60;90.00
25352;DHT22;13304;48.464;8.712;2023-05-14T08:50:16;15.70;90.30
25352;DHT22;13304;48.464;8.712;2023-05-14T08:52:43;15.70;90.10
25352;DHT22;13304;48.464;8.712;2023-05-14T08:55:09;15.70;90.20
25352;DHT22;13304;48.464;8.712;2023-05-14T08:57:36;15.80;90.30
25352;DHT22;13304;48.464;8.712;2023-05-14T09:00:03;15.80;90.30
25352;DHT22;13304;48.464;8.712;2023-05-14T09:02:39;15.90;90.30
25352;DHT22;13304;48.464;8.712;2023-05-14T09:05:06;15.90;90.20
25352;DHT22;13304;48.464;8.712;2023-05-14T09:07:32;16.00;90.10
25352;DHT22;13304;48.464;8.712;2023-05-14T09:09:58;16.10;90.00
25352;DHT22;13304;48.464;8.712;2023-05-14T09:12:24;16.10;90.10
25352;DHT22;13304;48.464;8.712;2023-05-14T09:14:50;16.20;89.80
25352;DHT22;13304;48.464;8.712;2023-05-14T09:17:17;16.30;90.30
25352;DHT22;13304;48.464;8.712;2023-05-14T09:19:43;16.30;90.00
25352;DHT22;13304;48.464;8.712;2023-05-14T09:22:13;16.40;89.60
25352;DHT22;13304;48.464;8.712;2023-05-14T09:24:39;16.40;89.60
25352;DHT22;13304;48.464;8.712;2023-05-14T09:27:05;16.50;89.80
25352;DHT22;13304;48.464;8.712;2023-05-14T09:29:31;16.70;90.00
25352;DHT22;13304;48.464;8.712;2023-05-14T09:31:58;16.70;89.40
25352;DHT22;13304;48.464;8.712;2023-05-14T09:34:29;16.80;89.10
25352;DHT22;13304;48.464;8.712;2023-05-14T09:36:56;16.80;88.90
25352;DHT22;13304;48.464;8.712;2023-05-14T09:39:23;17.00;89.00
25352;DHT22;13304;48.464;8.712;2023-05-14T09:41:49;17.00;87.70
25352;DHT22;13304;48.464;8.712;2023-05-14T09:44:17;17.10;87.60
25352;DHT22;13304;48.464;8.712;2023-05-14T09:46:43;17.10;87.40
25352;DHT22;13304;48.464;8.712;2023-05-14T09:49:09;17.20;87.50
25352;DHT22;13304;48.464;8.712;2023-05-14T09:51:36;17.20;87.40
25352;DHT22;13304;48.464;8.712;2023-05-14T09:54:04;17.30;86.90
25352;DHT22;13304;48.464;8.712;2023-05-14T09:56:31;17.30;87.00
25352;DHT22;13304;48.464;8.712;2023-05-14T09:58:57;17.40;87.20
25352;DHT22;13304;48.464;8.712;2023-05-14T10:01:24;17.40;87.30
25352;DHT22;13304;48.464;8.712;2023-05-14T10:03:54;17.50;87.70
25352;DHT22;13304;48.464;8.712;2023-05-14T10:06:26;17.50;86.10
25352;DHT22;13304;48.464;8.712;2023-05-14T10:08:56;17.60;86.50
25352;DHT22;13304;48.464;8.712;2023-05-14T10:11:24;17.70;86.70
25352;DHT22;13304;48.464;8.712;2023-05-14T10:14:02;17.80;86.30
25352;DHT22;13304;48.464;8.712;2023-05-14T10:16:43;17.80;85.80
25352;DHT22;13304;48.464;8.712;2023-05-14T10:19:10;17.80;85.00
25352;DHT22;13304;48.464;8.712;2023-05-14T10:21:37;17.90;84.90
25352;DHT22;13304;48.464;8.712;2023-05-14T10:24:05;18.00;85.10
25352;DHT22;13304;48.464;8.712;2023-05-14T10:26:34;18.10;85.10
25352;DHT22;13304;48.464;8.712;2023-05-14T10:29:02;18.20;85.10
25352;DHT22;13304;48.464;8.712;2023-05-14T10:34:36;18.20;83.10
25352;DHT22;13304;48.464;8.712;2023-05-14T10:37:16;18.30;83.00
25352;DHT22;13304;48.464;8.712;2023-05-14T10:39:58;18.40;83.40
25352;DHT22;13304;48.464;8.712;2023-05-14T10:42:30;18.40;82.50
25352;DHT22;13304;48.464;8.712;2023-05-14T10:45:01;18.50;80.20
25352;DHT22;13304;48.464;8.712;2023-05-14T10:47:30;18.50;79.80
25352;DHT22;13304;48.464;8.712;2023-05-14T10:50:02;18.50;80.70
25352;DHT22;13304;48.464;8.712;2023-05-14T10:52:29;18.60;78.80
25352;DHT22;13304;48.464;8.712;2023-05-14T10:54:56;18.70;78.30
25352;DHT22;13304;48.464;8.712;2023-05-14T10:57:23;18.70;78.40
25352;DHT22;13304;48.464;8.712;2023-05-14T10:59:54;18.70;79.00
25352;DHT22;13304;48.464;8.712;2023-05-14T11:05:15;18.80;79.50
25352;DHT22;13304;48.464;8.712;2023-05-14T11:07:47;18.80;76.60
25352;DHT22;13304;48.464;8.712;2023-05-14T11:10:19;18.90;78.30
25352;DHT22;13304;48.464;8.712;2023-05-14T11:12:50;19.00;77.60
25352;DHT22;13304;48.464;8.712;2023-05-14T11:15:21;19.10;78.60
25352;DHT22;13304;48.464;8.712;2023-05-14T11:17:48;19.20;77.60
25352;DHT22;13304;48.464;8.712;2023-05-14T11:20:15;19.30;77.50
25352;DHT22;13304;48.464;8.712;2023-05-14T11:22:44;19.40;77.60
25352;DHT22;13304;48.464;8.712;2023-05-14T11:25:11;19.40;74.90
25352;DHT22;13304;48.464;8.712;2023-05-14T11:27:43;19.50;73.90
25352;DHT22;13304;48.464;8.712;2023-05-14T11:30:12;19.50;71.70
25352;DHT22;13304;48.464;8.712;2023-05-14T11:32:38;19.40;71.60
25352;DHT22;13304;48.464;8.712;2023-05-14T11:35:05;19.40;72.50
25352;DHT22;13304;48.464;8.712;2023-05-14T11:37:31;19.30;71.00
25352;DHT22;13304;48.464;8.712;2023-05-14T11:39:59;19.20;70.90
25352;DHT22;13304;48.464;8.712;2023-05-14T11:42:25;19.10;71.80
25352;DHT22;13304;48.464;8.712;2023-05-14T11:44:52;19.00;71.60
25352;DHT22;13304;48.464;8.712;2023-05-14T11:47:23;18.80;72.50
25352;DHT22;13304;48.464;8.712;2023-05-14T11:49:49;18.70;73.40
25352;DHT22;13304;48.464;8.712;2023-05-14T11:52:16;18.60;73.90
25352;DHT22;13304;48.464;8.712;2023-05-14T11:54:44;18.50;74.90
25352;DHT22;13304;48.464;8.712;2023-05-14T11:57:12;18.30;75.10
25352;DHT22;13304;48.464;8.712;2023-05-14T11:59:39;18.20;76.00
25352;DHT22;13304;48.464;8.712;2023-05-14T12:02:12;18.00;76.10
25352;DHT22;13304;48.464;8.712;2023-05-14T12:04:39;17.80;76.90
25352;DHT22;13304;48.464;8.712;2023-05-14T12:07:10;17.70;77.30
25352;DHT22;13304;48.464;8.712;2023-05-14T12:09:44;17.50;78.80
25352;DHT22;13304;48.464;8.712;2023-05-14T12:12:17;17.50;79.80
25352;DHT22;13304;48.464;8.712;2023-05-14T12:14:43;17.40;80.40
25352;DHT22;13304;48.464;8.712;2023-05-14T12:17:18;17.30;81.30
25352;DHT22;13304;48.464;8.712;2023-05-14T12:19:45;17.20;81.60
25352;DHT22;13304;48.464;8.712;2023-05-14T12:22:17;17.30;81.60
25352;DHT22;13304;48.464;8.712;2023-05-14T12:24:52;17.30;81.30
25352;DHT22;13304;48.464;8.712;2023-05-14T12:27:21;17.30;81.80
25352;DHT22;13304;48.464;8.712;2023-05-14T12:29:47;17.30;82.70
25352;DHT22;13304;48.464;8.712;2023-05-14T12:32:13;17.30;82.60
25352;DHT22;13304;48.464;8.712;2023-05-14T12:34:39;17.40;82.80
25352;DHT22;13304;48.464;8.712;2023-05-14T12:37:05;17.40;82.50
25352;DHT22;13304;48.464;8.712;2023-05-14T12:39:34;17.50;81.80
25352;DHT22;13304;48.464;8.712;2023-05-14T12:42:00;17.60;82.40
25352;DHT22;13304;48.464;8.712;2023-05-14T12:44:26;17.70;83.40
25352;DHT22;13304;48.464;8.712;2023-05-14T12:46:52;17.80;83.50
25352;DHT22;13304;48.464;8.712;2023-05-14T12:49:18;17.90;82.60
25352;DHT22;13304;48.464;8.712;2023-05-14T12:51:44;18.00;81.80
25352;DHT22;13304;48.464;8.712;2023-05-14T12:54:11;18.10;81.50
25352;DHT22;13304;48.464;8.712;2023-05-14T12:56:37;18.20;81.30
25352;DHT22;13304;48.464;8.712;2023-05-14T12:59:03;18.20;81.10
25352;DHT22;13304;48.464;8.712;2023-05-14T13:01:29;18.30;80.50
25352;DHT22;13304;48.464;8.712;2023-05-14T13:03:55;18.30;78.70
25352;DHT22;13304;48.464;8.712;2023-05-14T13:06:22;18.40;78.70
25352;DHT22;13304;48.464;8.712;2023-05-14T13:08:48;18.50;77.90
25352;DHT22;13304;48.464;8.712;2023-05-14T13:11:14;18.50;75.90
25352;DHT22;13304;48.464;8.712;2023-05-14T13:13:41;18.50;77.00
25352;DHT22;13304;48.464;8.712;2023-05-14T13:16:07;18.60;76.90
25352;DHT22;13304;48.464;8.712;2023-05-14T13:18:32;18.70;77.40
25352;DHT22;13304;48.464;8.712;2023-05-14T13:20:58;18.80;76.90
25352;DHT22;13304;48.464;8.712;2023-05-14T13:23:24;18.90;75.80
25352;DHT22;13304;48.464;8.712;2023-05-14T13:25:50;19.00;75.90
25352;DHT22;13304;48.464;8.712;2023-05-14T13:28:15;19.10;75.00
25352;DHT22;13304;48.464;8.712;2023-05-14T13:30:42;19.10;76.30
25352;DHT22;13304;48.464;8.712;2023-05-14T13:33:27;18.90;74.80
25352;DHT22;13304;48.464;8.712;2023-05-14T13:35:52;18.80;74.20
25352;DHT22;13304;48.464;8.712;2023-05-14T13:38:18;18.60;73.70
25352;DHT22;13304;48.464;8.712;2023-05-14T13:40:43;18.30;74.00
25352;DHT22;13304;48.464;8.712;2023-05-14T13:43:09;18.10;75.00
25352;DHT22;13304;48.464;8.712;2023-05-14T13:45:35;17.80;76.20
25352;DHT22;13304;48.464;8.712;2023-05-14T13:48:01;17.60;77.30
25352;DHT22;13304;48.464;8.712;2023-05-14T13:50:27;17.40;78.20
25352;DHT22;13304;48.464;8.712;2023-05-14T13:52:52;17.20;79.30
25352;DHT22;13304;48.464;8.712;2023-05-14T13:55:18;17.00;80.90
25352;DHT22;13304;48.464;8.712;2023-05-14T13:57:44;16.80;80.90
25352;DHT22;13304;48.464;8.712;2023-05-14T14:00:10;16.60;82.80
25352;DHT22;13304;48.464;8.712;2023-05-14T14:02:36;16.40;83.20
25352;DHT22;13304;48.464;8.712;2023-05-14T14:05:02;16.20;83.90
25352;DHT22;13304;48.464;8.712;2023-05-14T14:07:27;16.10;84.50
25352;DHT22;13304;48.464;8.712;2023-05-14T14:09:53;16.00;84.80
25352;DHT22;13304;48.464;8.712;2023-05-14T14:12:19;15.80;85.50
25352;DHT22;13304;48.464;8.712;2023-05-14T14:14:45;15.70;86.00
25352;DHT22;13304;48.464;8.712;2023-05-14T14:17:10;15.60;86.80
25352;DHT22;13304;48.464;8.712;2023-05-14T14:19:36;15.50;87.70
25352;DHT22;13304;48.464;8.712;2023-05-14T14:22:02;15.50;88.00
25352;DHT22;13304;48.464;8.712;2023-05-14T14:24:28;15.40;88.70
25352;DHT22;13304;48.464;8.712;2023-05-14T14:26:53;15.40;89.60
25352;DHT22;13304;48.464;8.712;2023-05-14T14:29:19;15.40;90.10
25352;DHT22;13304;48.464;8.712;2023-05-14T14:31:47;15.40;90.40
25352;DHT22;13304;48.464;8.712;2023-05-14T14:34:12;15.40;90.60
25352;DHT22;13304;48.464;8.712;2023-05-14T14:36:38;15.30;90.40
25352;DHT22;13304;48.464;8.712;2023-05-14T14:39:04;15.30;90.20
25352;DHT22;13304;48.464;8.712;2023-05-14T14:41:31;15.20;90.00
25352;DHT22;13304;48.464;8.712;2023-05-14T14:43:56;15.20;89.90
25352;DHT22;13304;48.464;8.712;2023-05-14T14:46:22;15.20;89.70
25352;DHT22;13304;48.464;8.712;2023-05-14T14:48:48;15.10;89.90
25352;DHT22;13304;48.464;8.712;2023-05-14T14:51:14;15.10;90.20
25352;DHT22;13304;48.464;8.712;2023-05-14T14:53:39;15.00;90.40
25352;DHT22;13304;48.464;8.712;2023-05-14T14:56:05;15.00;90.60
25352;DHT22;13304;48.464;8.712;2023-05-14T14:58:31;15.00;90.80
25352;DHT22;13304;48.464;8.712;2023-05-14T15:00:59;15.00;90.90
25352;DHT22;13304;48.464;8.712;2023-05-14T15:03:25;15.00;91.10
25352;DHT22;13304;48.464;8.712;2023-05-14T15:05:51;15.00;91.40
25352;DHT22;13304;48.464;8.712;2023-05-14T15:08:18;15.10;91.60
25352;DHT22;13304;48.464;8.712;2023-05-14T15:10:45;15.10;91.60
25352;DHT22;13304;48.464;8.712;2023-05-14T15:13:11;15.10;91.50
25352;DHT22;13304;48.464;8.712;2023-05-14T15:15:37;15.10;91.70
25352;DHT22;13304;48.464;8.712;2023-05-14T15:18:03;15.20;91.80
25352;DHT22;13304;48.464;8.712;2023-05-14T15:20:29;15.20;91.90
25352;DHT22;13304;48.464;8.712;2023-05-14T15:22:55;15.20;92.10
25352;DHT22;13304;48.464;8.712;2023-05-14T15:25:22;15.30;92.30
25352;DHT22;13304;48.464;8.712;2023-05-14T15:27:49;15.30;92.40
25352;DHT22;13304;48.464;8.712;2023-05-14T15:30:15;15.40;92.60
25352;DHT22;13304;48.464;8.712;2023-05-14T15:32:41;15.40;92.90
25352;DHT22;13304;48.464;8.712;2023-05-14T15:35:07;15.40;92.70
25352;DHT22;13304;48.464;8.712;2023-05-14T15:37:42;15.50;92.90